Time;durP1;ratioP1;P1;durP2;ratioP2;P2;SDS_P1;SDS_P2;PMS_P1;PMS_P2;Temp;Humidity;BMP_temperature;BMP_pressure;BME280_temperature;BME280_humidity;BME280_pressure;Samples;Min_cycle;Max_cycle;Signal;HPM_P1;HPM_P2
2023/06/10 00:01:36;;;;;;;1999.90;999.90;;;17.60;99.90;;;;;;5033681;28;20053;-73
2023/06/10 00:04:02;;;;;;;1999.90;999.90;;;17.60;99.90;;;;;;5016481;28;20062;-75
2023/06/10 00:06:35;;;;;;;1999.90;959.75;;;17.60;99.90;;;;;;4999586;28;20083;-75
2023/06/10 00:09:05;;;;;;;1999.90;999.90;;;17.60;99.90;;;;;;5034239;28;20084;-74
2023/06/10 00:11:32;;;;;;;1999.90;999.90;;;17.50;99.90;;;;;;5032682;28;20051;-74
2023/06/10 00:13:58;;;;;;;1999.90;999.90;;;17.50;99.90;;;;;;5034146;28;20124;-74
2023/06/10 00:16:24;;;;;;;1999.90;835.22;;;17.40;99.90;;;;;;5016172;28;20041;-74
2023/06/10 00:18:55;;;;;;;1999.90;867.20;;;17.40;99.90;;;;;;5033919;28;20045;-75
2023/06/10 00:21:22;;;;;;;1999.90;933.03;;;17.40;99.90;;;;;;4996580;28;20057;-75
2023/06/10 00:23:48;;;;;;;1999.90;999.90;;;17.30;99.90;;;;;;5013670;28;20482;-74
2023/06/10 00:26:14;;;;;;;1999.90;997.97;;;17.30;99.90;;;;;;5013098;28;20405;-74
2023/06/10 00:28:39;;;;;;;1999.90;952.70;;;17.30;99.90;;;;;;4996168;28;20054;-74
2023/06/10 00:31:05;;;;;;;1999.90;999.90;;;17.20;99.90;;;;;;5013705;28;20054;-74
2023/06/10 00:33:31;;;;;;;1999.90;999.90;;;17.20;99.90;;;;;;5013590;28;20046;-74
2023/06/10 00:35:57;;;;;;;1999.90;999.90;;;17.20;99.90;;;;;;5013650;28;20046;-75
2023/06/10 00:38:23;;;;;;;1999.90;999.90;;;17.10;99.90;;;;;;5013770;28;20133;-74
2023/06/10 00:40:49;;;;;;;1999.90;929.70;;;17.10;99.90;;;;;;4995115;28;20415;-74
2023/06/10 00:43:15;;;;;;;1999.90;999.90;;;17.00;99.90;;;;;;5013770;28;20042;-74
2023/06/10 00:45:40;;;;;;;1999.90;882.38;;;17.00;99.90;;;;;;5013024;28;20529;-74
2023/06/10 00:48:06;;;;;;;1999.90;944.03;;;17.00;99.90;;;;;;4996344;28;20041;-73
2023/06/10 00:50:32;;;;;;;1999.90;784.20;;;17.00;99.90;;;;;;5012969;28;20073;-74
2023/06/10 00:52:59;;;;;;;1999.90;999.90;;;16.90;99.90;;;;;;5013612;28;20046;-73
2023/06/10 00:55:27;;;;;;;1999.90;999.90;;;16.90;99.90;;;;;;5012535;28;20045;-74
2023/06/10 00:57:53;;;;;;;1999.90;999.90;;;16.90;99.90;;;;;;5012770;28;20502;-74
2023/06/10 01:00:19;;;;;;;1999.90;924.60;;;16.80;99.90;;;;;;4995985;28;20367;-74
2023/06/10 01:02:45;;;;;;;1999.90;999.90;;;16.80;99.90;;;;;;5013151;28;20156;-74
2023/06/10 01:05:11;;;;;;;1999.90;999.90;;;16.80;99.90;;;;;;5013603;28;20410;-74
2023/06/10 01:07:50;;;;;;;1999.90;999.90;;;16.80;99.90;;;;;;5012989;28;20077;-75
2023/06/10 01:10:19;;;;;;;1999.90;999.90;;;16.80;99.90;;;;;;5012999;28;20117;-76
2023/06/10 01:13:02;;;;;;;1999.90;999.90;;;16.70;99.90;;;;;;5012666;28;20050;-74
2023/06/10 01:15:32;;;;;;;1999.90;973.83;;;16.70;99.90;;;;;;5013478;28;20147;-74
2023/06/10 01:18:07;;;;;;;1999.90;845.58;;;16.70;99.90;;;;;;5032704;28;20048;-74
2023/06/10 01:20:33;;;;;;;1999.90;999.90;;;16.60;99.90;;;;;;5031987;28;20081;-74
2023/06/10 01:23:00;;;;;;;1999.90;999.90;;;16.60;99.90;;;;;;5032952;28;20132;-74
2023/06/10 01:25:27;;;;;;;1999.90;999.90;;;16.60;99.90;;;;;;5031751;28;20441;-74
2023/06/10 01:28:46;;;;;;;1999.90;999.90;;;16.60;99.90;;;;;;5032326;28;20536;-73
2023/06/10 01:31:22;;;;;;;1999.90;999.90;;;16.60;99.90;;;;;;4961709;28;20063;-73
2023/06/10 01:33:51;;;;;;;1999.90;999.90;;;16.60;99.90;;;;;;5032398;28;20041;-74
2023/06/10 01:36:18;;;;;;;1999.90;999.90;;;16.60;99.90;;;;;;5032092;28;20505;-74
2023/06/10 01:38:46;;;;;;;1999.90;999.90;;;16.50;99.90;;;;;;5032205;28;20085;-73
2023/06/10 01:41:17;;;;;;;1999.90;999.90;;;16.50;99.90;;;;;;5031542;28;20057;-73
2023/06/10 01:43:44;;;;;;;1999.90;999.90;;;16.50;99.90;;;;;;5031873;28;20183;-73
2023/06/10 01:46:10;;;;;;;1999.90;999.90;;;16.50;99.90;;;;;;5032340;28;20111;-73
2023/06/10 01:48:37;;;;;;;1999.90;963.72;;;16.40;99.90;;;;;;5032205;28;20093;-76
2023/06/10 01:51:04;;;;;;;1999.90;999.90;;;16.40;99.90;;;;;;5032243;28;20053;-74
2023/06/10 01:53:29;;;;;;;1999.90;999.90;;;16.30;99.90;;;;;;5032540;28;20049;-74
2023/06/10 01:55:55;;;;;;;1999.90;999.90;;;16.30;99.90;;;;;;5030750;28;20263;-74
2023/06/10 01:58:20;;;;;;;1999.90;999.90;;;16.30;99.90;;;;;;5014801;28;20076;-73
2023/06/10 02:00:46;;;;;;;1999.90;999.90;;;16.20;99.90;;;;;;5031393;28;20061;-74
2023/06/10 02:03:12;;;;;;;1999.90;999.90;;;16.20;99.90;;;;;;5032191;28;20063;-73
2023/06/10 02:05:38;;;;;;;1999.90;999.90;;;16.20;99.90;;;;;;5031685;28;20057;-73
2023/06/10 02:08:04;;;;;;;1999.90;999.90;;;16.20;99.90;;;;;;5031418;28;20444;-73
2023/06/10 02:10:30;;;;;;;1999.90;999.90;;;16.20;99.90;;;;;;5013842;28;20041;-73
2023/06/10 02:12:56;;;;;;;1999.90;814.83;;;16.10;99.90;;;;;;5031927;28;20393;-73
2023/06/10 02:15:21;;;;;;;1999.90;999.90;;;16.10;99.90;;;;;;5032023;28;20132;-73
2023/06/10 02:17:48;;;;;;;1999.90;999.90;;;16.00;99.90;;;;;;5031678;28;20077;-74
2023/06/10 02:20:14;;;;;;;1999.90;999.90;;;16.00;99.90;;;;;;5022991;28;20124;-74
2023/06/10 02:22:40;;;;;;;1999.90;938.95;;;16.00;99.90;;;;;;5015893;28;20137;-74
2023/06/10 02:25:06;;;;;;;1999.90;999.90;;;16.00;99.90;;;;;;5016265;28;20052;-73
2023/06/10 02:27:32;;;;;;;1999.90;999.90;;;16.00;99.90;;;;;;5015371;28;20121;-73
2023/06/10 02:29:58;;;;;;;1999.90;999.90;;;15.90;99.90;;;;;;4998377;28;20045;-73
2023/06/10 02:32:25;;;;;;;1999.90;999.90;;;15.90;99.90;;;;;;5016058;28;20052;-73
2023/06/10 02:34:50;;;;;;;1999.90;999.90;;;15.90;99.90;;;;;;5015844;28;20054;-73
2023/06/10 02:37:16;;;;;;;1999.90;999.90;;;15.80;99.90;;;;;;5015790;28;20053;-73
2023/06/10 02:39:42;;;;;;;1999.90;999.90;;;15.80;99.90;;;;;;4998130;28;20050;-73
2023/06/10 02:42:08;;;;;;;1999.90;927.95;;;15.80;99.90;;;;;;5014677;28;20089;-74
2023/06/10 02:44:34;;;;;;;1999.90;999.90;;;15.80;99.90;;;;;;5016019;28;20045;-74
2023/06/10 02:46:59;;;;;;;1999.90;999.90;;;15.70;99.90;;;;;;5015350;28;20037;-73
2023/06/10 02:49:27;;;;;;;1999.90;999.90;;;15.70;99.90;;;;;;5015948;28;20129;-75
2023/06/10 02:51:53;;;;;;;;;;;15.60;99.90;;;;;;5015700;28;20053;-73
2023/06/10 02:54:22;;;;;;;1999.90;691.78;;;15.60;99.90;;;;;;5015898;28;19922;-73
2023/06/10 02:56:48;;;;;;;1999.90;999.90;;;15.60;99.90;;;;;;5014305;28;20050;-73
2023/06/10 02:59:14;;;;;;;1817.32;810.03;;;15.60;99.90;;;;;;5015658;28;20478;-73
2023/06/10 03:01:40;;;;;;;1857.72;296.50;;;15.50;99.90;;;;;;5015616;28;20050;-73
2023/06/10 03:04:06;;;;;;;1999.90;999.90;;;15.50;99.90;;;;;;5010705;28;20108;-73
2023/06/10 03:06:33;;;;;;;1999.90;999.90;;;15.50;99.90;;;;;;4995737;28;20058;-73
2023/06/10 03:09:00;;;;;;;1999.90;456.65;;;15.50;99.90;;;;;;4995620;28;20082;-73
2023/06/10 03:11:26;;;;;;;1999.90;999.90;;;15.50;99.90;;;;;;4994975;28;20074;-74
2023/06/10 03:13:53;;;;;;;1999.90;508.40;;;15.40;99.90;;;;;;4978285;28;20286;-73
2023/06/10 03:16:19;;;;;;;1999.90;513.97;;;15.40;99.90;;;;;;5000108;28;20495;-73
2023/06/10 03:18:45;;;;;;;1999.90;999.90;;;15.30;99.90;;;;;;5014894;28;20049;-77
2023/06/10 03:21:11;;;;;;;1999.90;465.50;;;15.30;99.90;;;;;;5014919;28;20042;-74
2023/06/10 03:23:37;;;;;;;1834.22;315.00;;;15.30;99.90;;;;;;5015301;28;20054;-74
2023/06/10 03:26:04;;;;;;;1999.90;999.90;;;15.30;99.90;;;;;;5013842;28;20046;-73
2023/06/10 03:28:31;;;;;;;1999.90;564.50;;;15.30;99.90;;;;;;5015310;28;20453;-73
2023/06/10 03:30:57;;;;;;;1989.30;336.88;;;15.20;99.90;;;;;;5012631;28;20092;-73
2023/06/10 03:33:22;;;;;;;1999.90;709.13;;;15.20;99.90;;;;;;5014776;28;20049;-73
2023/06/10 03:35:48;;;;;;;1999.90;456.15;;;15.20;99.90;;;;;;5013457;28;20053;-73
2023/06/10 03:38:14;;;;;;;1999.90;405.85;;;15.20;99.90;;;;;;5014958;28;20489;-74
2023/06/10 03:40:40;;;;;;;1999.90;999.90;;;15.20;99.90;;;;;;5014002;28;20780;-74
2023/06/10 03:43:05;;;;;;;1999.90;436.98;;;15.20;99.90;;;;;;5014633;28;20088;-73
2023/06/10 03:45:31;;;;;;;1999.90;528.55;;;15.20;99.90;;;;;;5014703;28;20455;-73
2023/06/10 03:47:58;;;;;;;1999.90;624.67;;;15.20;99.90;;;;;;5014518;28;20052;-73
2023/06/10 03:50:24;;;;;;;1999.90;999.90;;;15.20;99.90;;;;;;5014529;28;20054;-73
2023/06/10 03:52:50;;;;;;;1999.90;308.77;;;15.20;99.90;;;;;;5013217;28;20057;-73
2023/06/10 03:55:16;;;;;;;1999.90;466.33;;;15.20;99.90;;;;;;5014086;28;20054;-75
2023/06/10 03:57:43;;;;;;;1999.90;999.90;;;15.10;99.90;;;;;;5014115;28;20042;-73
2023/06/10 04:00:12;;;;;;;1999.90;999.90;;;15.20;99.90;;;;;;5012950;28;20061;-73
2023/06/10 04:02:45;;;;;;;1999.90;999.90;;;15.10;99.90;;;;;;5013555;28;20612;-73
2023/06/10 04:05:18;;;;;;;1999.90;999.90;;;15.10;99.90;;;;;;5013866;28;20561;-73
2023/06/10 04:07:44;;;;;;;1999.90;999.90;;;15.00;99.90;;;;;;5013513;28;20429;-73
2023/06/10 04:10:13;;;;;;;1999.90;821.33;;;15.10;99.90;;;;;;5013612;28;20510;-73
2023/06/10 04:12:39;;;;;;;1999.90;999.90;;;15.10;99.90;;;;;;5013823;28;20049;-73
2023/06/10 04:15:05;;;;;;;1999.90;999.90;;;15.10;99.90;;;;;;5012700;28;20046;-74
2023/06/10 04:17:31;;;;;;;1999.90;999.90;;;15.10;99.90;;;;;;5014038;28;20046;-74
2023/06/10 04:19:57;;;;;;;1852.18;800.17;;;15.10;99.90;;;;;;5005237;28;20512;-73
2023/06/10 04:22:23;;;;;;;1359.10;164.52;;;15.10;99.90;;;;;;4994426;28;20050;-73
2023/06/10 04:24:49;;;;;;;1865.18;462.25;;;15.10;99.90;;;;;;4993429;28;20056;-74
2023/06/10 04:27:15;;;;;;;1583.18;391.00;;;15.10;99.90;;;;;;4992081;28;20042;-74
2023/06/10 04:29:41;;;;;;;1999.90;413.50;;;15.00;99.90;;;;;;4994452;28;20463;-74
2023/06/10 04:32:07;;;;;;;1982.78;663.45;;;15.00;99.90;;;;;;4992866;28;20054;-74
2023/06/10 04:34:33;;;;;;;1683.40;175.85;;;15.10;99.90;;;;;;5009738;28;20064;-74
2023/06/10 04:36:59;;;;;;;1999.90;999.90;;;15.00;99.90;;;;;;4993614;28;20042;-73
2023/06/10 04:39:25;;;;;;;1999.90;999.90;;;15.00;99.90;;;;;;4994186;28;20053;-75
2023/06/10 04:41:50;;;;;;;1224.40;192.90;;;15.00;99.90;;;;;;4993154;28;20050;-75
2023/06/10 04:44:16;;;;;;;1999.90;999.90;;;15.10;99.90;;;;;;4992623;28;20092;-74
2023/06/10 04:46:42;;;;;;;1967.95;209.23;;;15.10;99.90;;;;;;4993974;28;20377;-75
2023/06/10 04:49:07;;;;;;;1999.90;999.90;;;15.10;99.90;;;;;;4993744;28;20053;-75
2023/06/10 04:51:34;;;;;;;1122.10;111.15;;;15.10;99.90;;;;;;4976742;28;20061;-74
2023/06/10 04:54:03;;;;;;;1999.90;999.90;;;15.00;99.90;;;;;;4992446;28;20508;-74
2023/06/10 04:56:30;;;;;;;1659.00;578.50;;;15.00;99.90;;;;;;4992970;28;20046;-74
2023/06/10 04:58:59;;;;;;;1999.90;999.90;;;15.00;99.90;;;;;;4993446;28;20077;-74
2023/06/10 05:01:25;;;;;;;1514.68;119.03;;;15.10;99.90;;;;;;4993620;28;20046;-74
2023/06/10 05:03:51;;;;;;;1999.90;999.90;;;15.10;99.90;;;;;;5003185;28;20486;-74
2023/06/10 05:06:17;;;;;;;1893.70;794.45;;;15.10;99.90;;;;;;5012773;28;20058;-74
2023/06/10 05:08:43;;;;;;;1811.20;781.67;;;15.10;99.90;;;;;;4995766;28;20053;-74
2023/06/10 05:11:09;;;;;;;1999.90;999.90;;;15.10;99.90;;;;;;5011896;28;20050;-75
2023/06/10 05:13:34;;;;;;;1999.90;999.90;;;15.20;99.90;;;;;;4995989;28;20180;-74
2023/06/10 05:16:00;;;;;;;1124.28;306.02;;;15.20;99.90;;;;;;5015696;28;20120;-74
2023/06/10 05:18:26;;;;;;;1999.90;999.90;;;15.20;99.90;;;;;;5015368;28;20481;-74
2023/06/10 05:20:53;;;;;;;1999.90;999.90;;;15.20;99.90;;;;;;5016607;28;20530;-73
2023/06/10 05:23:19;;;;;;;1999.90;999.90;;;15.20;99.90;;;;;;5012838;28;20042;-74
2023/06/10 05:25:45;;;;;;;1999.90;999.90;;;15.30;99.90;;;;;;5012134;28;20132;-74
2023/06/10 05:28:11;;;;;;;1999.90;999.90;;;15.30;99.90;;;;;;5012682;28;20053;-75
2023/06/10 05:30:37;;;;;;;1726.43;569.47;;;15.30;99.90;;;;;;5012807;28;20390;-75
2023/06/10 05:33:04;;;;;;;1746.75;777.25;;;15.30;99.90;;;;;;5012627;28;20049;-76
2023/06/10 05:35:30;;;;;;;1791.95;779.00;;;15.30;99.90;;;;;;5012427;28;20564;-74
2023/06/10 05:37:56;;;;;;;1507.85;547.88;;;15.30;99.90;;;;;;5012968;28;20038;-74
2023/06/10 05:40:22;;;;;;;1724.30;773.63;;;15.30;99.90;;;;;;5010533;28;20485;-75
2023/06/10 05:42:47;;;;;;;1999.90;999.90;;;15.40;99.90;;;;;;5012739;28;20133;-73
2023/06/10 05:45:13;;;;;;;1999.90;999.90;;;15.50;99.90;;;;;;5011147;28;20057;-74
2023/06/10 05:47:40;;;;;;;1999.90;999.90;;;15.50;99.90;;;;;;5012707;28;20038;-74
2023/06/10 05:50:09;;;;;;;1999.90;999.90;;;15.50;99.90;;;;;;5012505;28;20057;-73
2023/06/10 05:52:36;;;;;;;1455.22;358.92;;;15.50;99.90;;;;;;5012577;28;20045;-74
2023/06/10 05:55:03;;;;;;;1603.13;561.53;;;15.50;99.90;;;;;;5011543;28;20081;-74
2023/06/10 05:57:29;;;;;;;1999.90;999.90;;;15.60;99.90;;;;;;5011791;28;20038;-74
2023/06/10 05:59:55;;;;;;;1999.90;999.90;;;15.60;99.90;;;;;;4995129;28;20394;-74
2023/06/10 06:02:20;;;;;;;1999.90;999.90;;;15.70;99.90;;;;;;5011070;28;20291;-74
2023/06/10 06:04:46;;;;;;;1672.40;767.92;;;15.70;99.90;;;;;;5012168;28;20097;-73
2023/06/10 06:07:12;;;;;;;1999.90;999.90;;;15.80;99.90;;;;;;5012007;28;20064;-74
2023/06/10 06:09:37;;;;;;;1999.90;999.90;;;15.80;99.90;;;;;;5012590;28;20046;-73
2023/06/10 06:12:04;;;;;;;1999.90;999.90;;;15.90;99.90;;;;;;5011103;28;20059;-74
2023/06/10 06:14:32;;;;;;;1999.90;999.90;;;16.00;99.90;;;;;;5012554;28;20078;-74
2023/06/10 06:16:57;;;;;;;1476.07;551.97;;;16.00;99.90;;;;;;5023176;28;20045;-73
2023/06/10 06:19:23;;;;;;;1183.80;112.68;;;16.10;99.90;;;;;;5031620;28;20096;-74
2023/06/10 06:21:49;;;;;;;1999.90;999.90;;;16.10;99.90;;;;;;5031969;28;20041;-73
2023/06/10 06:24:16;;;;;;;1999.90;999.90;;;16.20;99.90;;;;;;5031767;28;20048;-74
2023/06/10 06:26:41;;;;;;;1999.90;999.90;;;16.30;99.90;;;;;;5031193;28;20050;-73
2023/06/10 06:29:07;;;;;;;1999.90;999.90;;;16.30;99.90;;;;;;5014451;28;20096;-73
2023/06/10 06:31:33;;;;;;;1410.60;558.65;;;16.40;99.90;;;;;;5031904;28;20135;-73
2023/06/10 06:33:58;;;;;;;1999.90;999.90;;;16.50;99.90;;;;;;5032156;28;20133;-74
2023/06/10 06:36:24;;;;;;;1999.90;999.90;;;16.60;99.90;;;;;;5014104;28;20079;-74
2023/06/10 06:38:50;;;;;;;1999.90;999.90;;;16.60;99.90;;;;;;5031996;28;20045;-74
2023/06/10 06:41:16;;;;;;;1999.90;999.90;;;16.70;99.90;;;;;;5030628;28;20052;-74
2023/06/10 06:43:42;;;;;;;1999.90;999.90;;;16.80;99.90;;;;;;5014528;28;20485;-73
2023/06/10 06:46:08;;;;;;;1999.90;999.90;;;16.90;99.90;;;;;;5031417;28;20053;-74
2023/06/10 06:48:34;;;;;;;1999.90;999.90;;;17.00;99.90;;;;;;5031976;28;20287;-75
2023/06/10 06:51:00;;;;;;;1999.90;999.90;;;17.00;99.90;;;;;;5014313;28;20042;-73
2023/06/10 06:53:25;;;;;;;1999.90;999.90;;;17.10;99.90;;;;;;5031690;28;20056;-73
2023/06/10 06:55:51;;;;;;;1999.90;999.90;;;17.20;99.90;;;;;;5030872;28;20502;-73
2023/06/10 06:58:16;;;;;;;1999.90;999.90;;;17.30;99.90;;;;;;5031468;28;20107;-74
2023/06/10 07:00:42;;;;;;;1999.90;999.90;;;17.40;99.90;;;;;;5014109;28;20058;-74
2023/06/10 07:03:08;;;;;;;1999.90;999.90;;;17.40;99.90;;;;;;5031283;28;20049;-77
2023/06/10 07:05:34;;;;;;;1999.90;999.90;;;17.50;99.90;;;;;;5014621;28;20133;-73
2023/06/10 07:07:59;;;;;;;1999.90;999.90;;;17.60;99.90;;;;;;5035104;28;20037;-73
2023/06/10 07:10:26;;;;;;;1999.90;999.90;;;17.70;99.90;;;;;;5016425;28;20046;-77
2023/06/10 07:12:52;;;;;;;1999.90;769.90;;;17.90;99.90;;;;;;5035222;28;20064;-74
2023/06/10 07:15:18;;;;;;;1999.90;999.90;;;18.20;99.90;;;;;;5034771;28;20100;-73
2023/06/10 07:17:44;;;;;;;1999.90;983.33;;;18.40;99.90;;;;;;5034791;28;20077;-74
2023/06/10 07:20:10;;;;;;;1999.90;999.90;;;18.60;99.90;;;;;;5006856;28;20037;-76
2023/06/10 07:22:38;;;;;;;1999.90;999.90;;;18.90;99.90;;;;;;5015148;28;20072;-74
2023/06/10 07:25:05;;;;;;;1999.90;999.90;;;19.20;99.90;;;;;;5015198;28;20050;-73
2023/06/10 07:27:31;;;;;;;1999.90;999.90;;;19.40;99.90;;;;;;5012993;28;20482;-73
2023/06/10 07:29:56;;;;;;;1999.90;999.90;;;19.60;99.90;;;;;;5015182;28;20199;-74
2023/06/10 07:32:23;;;;;;;1999.90;999.90;;;19.80;99.90;;;;;;4997348;28;20430;-74
2023/06/10 07:34:50;;;;;;;1999.90;999.90;;;20.00;99.90;;;;;;5014234;28;20061;-73
2023/06/10 07:37:16;;;;;;;1999.90;999.90;;;20.10;99.90;;;;;;5014436;28;20075;-74
2023/06/10 07:39:43;;;;;;;1999.90;999.90;;;20.40;99.90;;;;;;5014960;28;20042;-74
2023/06/10 07:42:09;;;;;;;1999.90;999.90;;;20.50;99.90;;;;;;5013968;28;20046;-74
2023/06/10 07:44:34;;;;;;;1999.90;999.90;;;20.70;99.90;;;;;;5014878;28;20053;-74
2023/06/10 07:47:00;;;;;;;1999.90;999.90;;;20.80;99.90;;;;;;5014631;28;20406;-74
2023/06/10 07:49:26;;;;;;;1999.90;999.90;;;21.00;99.90;;;;;;4997163;28;20385;-74
2023/06/10 07:51:53;;;;;;;1999.90;999.90;;;21.20;99.90;;;;;;5014776;28;20046;-75
2023/06/10 07:54:19;;;;;;;1999.90;999.90;;;21.40;99.90;;;;;;5014497;28;20042;-75
2023/06/10 07:56:44;;;;;;;1999.90;999.90;;;21.60;99.90;;;;;;5013645;28;20093;-75
2023/06/10 07:59:10;;;;;;;1999.90;999.90;;;21.70;99.90;;;;;;4997444;28;20478;-75
2023/06/10 08:01:38;;;;;;;1999.90;999.90;;;21.80;99.90;;;;;;4980718;28;20057;-75
2023/06/10 08:04:03;;;;;;;;;;;22.10;99.90;;;;;;5014794;28;20418;-75
2023/06/10 08:06:29;;;;;;;1999.90;999.90;;;22.20;99.90;;;;;;5014538;28;19928;-75
2023/06/10 08:08:55;;;;;;;1999.90;999.90;;;22.40;99.90;;;;;;4997814;28;20050;-75
2023/06/10 08:11:20;;;;;;;1999.90;999.90;;;22.40;99.90;;;;;;5013147;28;20092;-74
2023/06/10 08:13:46;;;;;;;1999.90;999.90;;;22.60;99.90;;;;;;4997123;28;20045;-75
2023/06/10 08:16:12;;;;;;;1999.90;999.90;;;22.60;99.90;;;;;;4985464;28;20045;-74
2023/06/10 08:18:37;;;;;;;1999.90;999.90;;;22.70;99.90;;;;;;5033048;28;20497;-74
2023/06/10 08:21:03;;;;;;;1999.90;999.90;;;22.90;99.90;;;;;;5016026;28;20508;-75
2023/06/10 08:23:29;;;;;;;1999.90;999.90;;;23.00;99.90;;;;;;5013892;28;20050;-74
2023/06/10 08:25:55;;;;;;;1999.90;999.90;;;23.20;99.90;;;;;;5013067;28;20049;-74
2023/06/10 08:28:20;;;;;;;1999.90;999.90;;;23.40;99.90;;;;;;5013793;28;20494;-75
2023/06/10 08:30:46;;;;;;;1999.90;999.90;;;23.50;99.90;;;;;;5013784;28;20394;-74
2023/06/10 08:33:12;;;;;;;1999.90;999.90;;;23.50;99.90;;;;;;5014061;28;20049;-74
2023/06/10 08:35:37;;;;;;;1999.90;999.90;;;23.80;99.90;;;;;;5013262;28;20389;-74
2023/06/10 08:38:03;;;;;;;1999.90;999.90;;;24.00;99.90;;;;;;5013538;28;20053;-74
2023/06/10 08:40:29;;;;;;;1999.90;999.90;;;24.10;99.90;;;;;;5012460;28;20141;-74
2023/06/10 08:43:08;;;;;;;1999.90;999.90;;;24.20;99.90;;;;;;4996544;28;20422;-74
2023/06/10 08:45:36;;;;;;;1999.90;999.90;;;24.20;99.90;;;;;;5013111;28;20096;-74
2023/06/10 08:48:09;;;;;;;1999.90;999.90;;;24.30;99.90;;;;;;5013867;28;20045;-74
2023/06/10 08:50:36;;;;;;;1999.90;999.90;;;24.50;99.90;;;;;;5013070;28;20049;-74
2023/06/10 08:53:04;;;;;;;;;;;24.90;99.90;;;;;;5014087;28;20497;-74
2023/06/10 08:55:32;;;;;;;1999.90;999.90;;;24.90;99.90;;;;;;5012185;28;20263;-75
2023/06/10 08:58:02;;;;;;;1999.90;999.90;;;25.00;99.90;;;;;;5013503;28;20474;-74
2023/06/10 09:00:29;;;;;;;1999.90;999.90;;;25.20;99.90;;;;;;5012802;28;20441;-74
2023/06/10 09:02:56;;;;;;;1999.90;999.90;;;25.40;99.90;;;;;;5013470;28;20054;-74
2023/06/10 09:05:22;;;;;;;1999.90;999.90;;;25.50;99.90;;;;;;5011637;28;20050;-74
2023/06/10 09:07:48;;;;;;;1999.90;999.90;;;25.60;99.90;;;;;;5013443;28;20430;-73
2023/06/10 09:10:14;;;;;;;1999.90;999.90;;;25.70;99.90;;;;;;5013138;28;20046;-75
2023/06/10 09:12:40;;;;;;;1999.90;999.90;;;26.10;99.90;;;;;;5012130;28;20052;-74
2023/06/10 09:15:07;;;;;;;1999.90;999.90;;;26.20;99.90;;;;;;5013251;28;20050;-74
2023/06/10 09:17:33;;;;;;;1999.90;999.90;;;26.40;99.90;;;;;;5028703;28;20084;-74
2023/06/10 09:20:00;;;;;;;1999.90;999.90;;;26.20;99.90;;;;;;5024013;28;20045;-74
2023/06/10 09:22:26;;;;;;;1999.90;999.90;;;26.50;99.90;;;;;;5012613;28;20049;-74
2023/06/10 09:25:03;;;;;;;1999.90;999.90;;;26.70;99.90;;;;;;5013086;28;20179;-74
2023/06/10 09:27:30;;;;;;;1999.90;999.90;;;26.70;99.90;;;;;;5012000;28;20046;-74
2023/06/10 09:29:57;;;;;;;;;;;27.00;99.90;;;;;;5012572;28;20085;-76
2023/06/10 09:32:24;;;;;;;1999.90;999.90;;;27.30;99.90;;;;;;4995195;28;19926;-75
2023/06/10 09:34:50;;;;;;;1999.90;999.90;;;27.40;99.90;;;;;;5013320;28;20050;-74
2023/06/10 09:37:23;;;;;;;1608.25;598.58;;;27.40;99.90;;;;;;5012834;28;20123;-74
2023/06/10 09:40:10;;;;;;;1999.90;902.75;;;27.60;99.90;;;;;;5012963;28;20046;-74
2023/06/10 09:42:38;;;;;;;1999.90;960.58;;;27.50;99.90;;;;;;4994367;28;20482;-74
2023/06/10 09:45:05;;;;;;;1999.90;999.90;;;27.70;99.90;;;;;;5012513;28;20414;-74
2023/06/10 09:47:31;;;;;;;;;;;28.20;99.90;;;;;;4995060;28;20052;-74
2023/06/10 09:49:56;;;;;;;1633.35;641.97;;;28.50;99.90;;;;;;5013087;28;19921;-74
2023/06/10 09:52:27;;;;;;;1999.90;999.90;;;28.60;99.90;;;;;;4995409;28;20124;-75
2023/06/10 09:54:58;;;;;;;1999.90;999.90;;;28.80;99.90;;;;;;5012814;28;20394;-74
2023/06/10 09:57:24;;;;;;;1999.90;999.90;;;29.20;99.90;;;;;;5011452;28;20073;-75
2023/06/10 09:59:53;;;;;;;1999.90;999.90;;;29.60;99.90;;;;;;5012355;28;20494;-75
2023/06/10 10:02:19;;;;;;;1999.90;999.90;;;29.60;99.90;;;;;;5012519;28;20414;-75
2023/06/10 10:04:45;;;;;;;1999.90;999.90;;;30.00;99.90;;;;;;4994414;28;20046;-74
2023/06/10 10:07:11;;;;;;;1999.90;999.90;;;30.10;99.90;;;;;;4995098;28;20045;-75
2023/06/10 10:09:38;;;;;;;1999.90;999.90;;;30.30;99.90;;;;;;4995001;28;20056;-75
2023/06/10 10:12:11;;;;;;;1999.90;999.90;;;30.60;99.90;;;;;;5011564;28;20053;-74
2023/06/10 10:14:38;;;;;;;1999.90;999.90;;;31.00;99.90;;;;;;4994813;28;20045;-74
2023/06/10 10:17:11;;;;;;;1999.90;999.90;;;31.20;99.90;;;;;;5024134;28;20429;-75
2023/06/10 10:19:57;;;;;;;1999.90;999.90;;;31.30;99.90;;;;;;5026084;28;20049;-74
2023/06/10 10:22:29;;;;;;;1999.90;999.90;;;31.30;99.90;;;;;;5012055;28;20424;-75
2023/06/10 10:24:59;;;;;;;1999.90;999.90;;;31.50;99.90;;;;;;5012399;28;20132;-75
2023/06/10 10:27:28;;;;;;;1999.90;999.90;;;31.90;99.90;;;;;;5011223;28;20054;-83
2023/06/10 10:29:55;;;;;;;1999.90;999.90;;;32.30;99.90;;;;;;5012493;28;20368;-75
2023/06/10 10:32:31;;;;;;;1999.90;999.90;;;32.60;99.90;;;;;;5010809;28;20050;-77
2023/06/10 10:35:18;;;;;;;1999.90;999.90;;;32.90;99.90;;;;;;5012376;28;20041;-75
2023/06/10 10:37:45;;;;;;;1999.90;999.90;;;33.10;99.90;;;;;;5011918;28;20092;-75
2023/06/10 10:40:12;;;;;;;1999.90;999.90;;;33.60;99.90;;;;;;5012327;28;20045;-75
2023/06/10 10:42:38;;;;;;;1999.90;999.90;;;34.20;99.90;;;;;;5014357;28;20390;-75
2023/06/10 10:45:05;;;;;;;;;;;34.50;99.90;;;;;;5016681;28;20085;-75
2023/06/10 10:47:32;;;;;;;1999.90;999.90;;;34.80;99.90;;;;;;4998107;28;19975;-74
2023/06/10 10:50:00;;;;;;;1999.90;999.90;;;35.50;99.90;;;;;;4998619;28;20108;-75
2023/06/10 10:52:46;;;;;;;1999.90;999.90;;;35.80;99.90;;;;;;5015754;28;20046;-75
2023/06/10 10:55:15;;;;;;;1999.90;999.90;;;36.10;99.90;;;;;;5015817;28;20049;-76
2023/06/10 10:57:40;;;;;;;1999.90;999.90;;;36.30;99.90;;;;;;5014660;28;20042;-76
2023/06/10 11:00:09;;;;;;;1999.90;999.90;;;37.00;99.90;;;;;;5015760;28;20049;-75
2023/06/10 11:02:42;;;;;;;1999.90;999.90;;;36.80;99.90;;;;;;4997594;28;20045;-75
2023/06/10 11:05:09;;;;;;;1999.90;999.90;;;36.90;99.90;;;;;;5015861;28;20068;-75
2023/06/10 11:07:36;;;;;;;;;;;37.40;99.90;;;;;;5015460;28;20118;-75
2023/06/10 11:10:10;;;;;;;1999.90;999.90;;;38.00;99.90;;;;;;5014076;28;20381;-75
2023/06/10 11:12:54;;;;;;;1999.90;999.90;;;38.30;99.90;;;;;;4996941;28;20054;-75
2023/06/10 11:15:24;;;;;;;1999.90;999.90;;;38.70;99.90;;;;;;4998085;28;20141;-75
2023/06/10 11:18:13;;;;;;;1999.90;999.90;;;39.30;99.90;;;;;;5033696;28;20048;-75
2023/06/10 11:20:50;;;;;;;1999.90;999.90;;;39.40;99.90;;;;;;5000661;28;20456;-76
2023/06/10 11:23:28;;;;;;;1999.90;999.90;;;39.60;99.90;;;;;;5035205;28;20054;-75
2023/06/10 11:26:31;;;;;;;1999.90;999.90;;;40.10;99.90;;;;;;5016274;28;20071;-75
2023/06/10 11:28:57;;;;;;;1999.90;999.90;;;40.20;99.90;;;;;;5017581;28;20049;-75
2023/06/10 11:31:24;;;;;;;1999.90;999.90;;;40.20;99.90;;;;;;5034893;28;20587;-75
2023/06/10 11:33:54;;;;;;;1999.90;999.90;;;40.20;99.90;;;;;;5034607;28;20501;-76
2023/06/10 11:36:20;;;;;;;1999.90;999.90;;;40.50;99.90;;;;;;5034923;28;20049;-75
2023/06/10 11:38:46;;;;;;;1999.90;999.90;;;40.80;99.90;;;;;;5034638;28;20048;-75
2023/06/10 11:41:13;;;;;;;1999.90;999.90;;;41.00;99.90;;;;;;5033713;28;20359;-75
2023/06/10 11:43:46;;;;;;;1999.90;999.90;;;40.90;99.90;;;;;;5016823;28;20095;-75
2023/06/10 11:46:12;;;;;;;1999.90;999.90;;;41.10;99.90;;;;;;5034473;28;20089;-75
2023/06/10 11:48:38;;;;;;;;;;;41.40;99.90;;;;;;5034713;28;20079;-75
2023/06/10 11:51:07;;;;;;;1999.90;999.90;;;41.70;99.90;;;;;;5034382;28;19921;-76
2023/06/10 11:53:33;;;;;;;1999.90;999.90;;;42.00;99.90;;;;;;5033494;28;20080;-82
2023/06/10 11:55:59;;;;;;;1999.90;999.90;;;42.00;99.90;;;;;;5016011;28;20092;-75
2023/06/10 11:58:25;;;;;;;1999.90;999.90;;;41.70;99.90;;;;;;5034418;28;20077;-75
2023/06/10 12:00:53;;;;;;;1999.90;999.90;;;41.60;99.90;;;;;;5016186;28;20133;-75
2023/06/10 12:03:19;;;;;;;1999.90;999.90;;;41.80;99.90;;;;;;5016586;28;20140;-75